sensor_id;sensor_type;location;lat;lon;timestamp;pressure;altitude;pressure_sealevel;temperature;humidity
65190;BME280;51777;53.570;9.984;2024-03-02T00:00:20;100159.69;;;9.54;100.00
65190;BME280;51777;53.570;9.984;2024-03-02T00:02:49;100165.16;;;9.51;100.00
65190;BME280;51777;53.570;9.984;2024-03-02T00:05:19;100168.25;;;9.55;100.00
65190;BME280;51777;53.570;9.984;2024-03-02T00:07:46;100167.31;;;9.56;100.00
65190;BME280;51777;53.570;9.984;2024-03-02T00:10:16;100164.03;;;9.54;100.00
65190;BME280;51777;53.570;9.984;2024-03-02T00:12:47;100169.22;;;9.54;100.00
65190;BME280;51777;53.570;9.984;2024-03-02T00:18:03;100156.78;;;9.49;100.00
65190;BME280;51777;53.570;9.984;2024-03-02T00:20:30;100169.53;;;9.51;100.00
65190;BME280;51777;53.570;9.984;2024-03-02T00:23:02;100156.94;;;9.48;100.00
65190;BME280;51777;53.570;9.984;2024-03-02T00:25:37;100159.50;;;9.48;100.00
65190;BME280;51777;53.570;9.984;2024-03-02T00:28:23;100153.84;;;9.44;100.00
65190;BME280;51777;53.570;9.984;2024-03-02T00:33:45;100147.88;;;9.44;100.00
65190;BME280;51777;53.570;9.984;2024-03-02T00:36:16;100144.34;;;9.45;100.00
65190;BME280;51777;53.570;9.984;2024-03-02T00:38:50;100138.22;;;9.46;100.00
65190;BME280;51777;53.570;9.984;2024-03-02T00:41:19;100133.72;;;9.48;100.00
65190;BME280;51777;53.570;9.984;2024-03-02T00:43:55;100144.34;;;9.45;100.00
65190;BME280;51777;53.570;9.984;2024-03-02T00:46:22;100139.78;;;9.38;100.00
65190;BME280;51777;53.570;9.984;2024-03-02T00:48:56;100135.09;;;9.42;100.00
65190;BME280;51777;53.570;9.984;2024-03-02T00:51:23;100127.25;;;9.44;100.00
65190;BME280;51777;53.570;9.984;2024-03-02T00:53:51;100128.84;;;9.45;100.00
65190;BME280;51777;53.570;9.984;2024-03-02T00:56:17;100131.72;;;9.41;100.00
65190;BME280;51777;53.570;9.984;2024-03-02T00:58:44;100128.50;;;9.39;100.00
65190;BME280;51777;53.570;9.984;2024-03-02T01:01:09;100132.50;;;9.34;100.00
65190;BME280;51777;53.570;9.984;2024-03-02T01:03:35;100130.06;;;9.32;100.00
65190;BME280;51777;53.570;9.984;2024-03-02T01:06:07;100135.25;;;9.32;100.00
65190;BME280;51777;53.570;9.984;2024-03-02T01:08:36;100132.00;;;9.30;100.00
65190;BME280;51777;53.570;9.984;2024-03-02T01:11:02;100136.94;;;9.24;100.00
65190;BME280;51777;53.570;9.984;2024-03-02T01:13:28;100143.53;;;9.18;100.00
65190;BME280;51777;53.570;9.984;2024-03-02T01:15:54;100140.56;;;9.13;100.00
65190;BME280;51777;53.570;9.984;2024-03-02T01:18:19;100144.44;;;9.09;100.00
65190;BME280;51777;53.570;9.984;2024-03-02T01:20:44;100147.59;;;9.03;100.00
65190;BME280;51777;53.570;9.984;2024-03-02T01:23:10;100142.91;;;8.98;100.00
65190;BME280;51777;53.570;9.984;2024-03-02T01:25:36;100147.16;;;8.90;100.00
65190;BME280;51777;53.570;9.984;2024-03-02T01:28:01;100142.97;;;8.89;100.00
65190;BME280;51777;53.570;9.984;2024-03-02T01:30:27;100142.63;;;8.83;100.00
65190;BME280;51777;53.570;9.984;2024-03-02T01:32:52;100136.28;;;8.78;100.00
65190;BME280;51777;53.570;9.984;2024-03-02T01:35:18;100136.75;;;8.73;100.00
65190;BME280;51777;53.570;9.984;2024-03-02T01:37:43;100131.88;;;8.70;100.00
65190;BME280;51777;53.570;9.984;2024-03-02T01:40:09;100132.47;;;8.64;100.00
65190;BME280;51777;53.570;9.984;2024-03-02T01:42:36;100126.94;;;8.59;100.00
65190;BME280;51777;53.570;9.984;2024-03-02T01:45:04;100126.94;;;8.59;100.00
65190;BME280;51777;53.570;9.984;2024-03-02T01:47:29;100127.25;;;8.56;100.00
65190;BME280;51777;53.570;9.984;2024-03-02T01:49:55;100124.81;;;8.54;100.00
65190;BME280;51777;53.570;9.984;2024-03-02T01:52:20;100129.94;;;8.54;100.00
65190;BME280;51777;53.570;9.984;2024-03-02T01:54:45;100125.25;;;8.50;100.00
65190;BME280;51777;53.570;9.984;2024-03-02T01:57:11;100128.63;;;8.50;100.00
65190;BME280;51777;53.570;9.984;2024-03-02T01:59:37;100128.47;;;8.52;100.00
65190;BME280;51777;53.570;9.984;2024-03-02T02:02:02;100119.75;;;8.45;100.00
65190;BME280;51777;53.570;9.984;2024-03-02T02:04:28;100124.91;;;8.45;100.00
65190;BME280;51777;53.570;9.984;2024-03-02T02:06:55;100118.41;;;8.41;100.00
65190;BME280;51777;53.570;9.984;2024-03-02T02:09:21;100115.66;;;8.42;100.00
65190;BME280;51777;53.570;9.984;2024-03-02T02:11:47;100116.78;;;8.40;100.00
65190;BME280;51777;53.570;9.984;2024-03-02T02:14:14;100107.59;;;8.37;100.00
65190;BME280;51777;53.570;9.984;2024-03-02T02:16:40;100100.81;;;8.36;100.00
65190;BME280;51777;53.570;9.984;2024-03-02T02:19:05;100104.19;;;8.37;100.00
65190;BME280;51777;53.570;9.984;2024-03-02T02:21:31;100100.97;;;8.35;100.00
65190;BME280;51777;53.570;9.984;2024-03-02T02:23:56;100105.16;;;8.36;100.00
65190;BME280;51777;53.570;9.984;2024-03-02T02:26:21;100101.78;;;8.35;100.00
65190;BME280;51777;53.570;9.984;2024-03-02T02:28:47;100098.25;;;8.36;100.00
65190;BME280;51777;53.570;9.984;2024-03-02T02:31:13;100094.56;;;8.39;100.00
65190;BME280;51777;53.570;9.984;2024-03-02T02:33:40;100100.66;;;8.38;100.00
65190;BME280;51777;53.570;9.984;2024-03-02T02:36:05;100089.84;;;8.34;100.00
65190;BME280;51777;53.570;9.984;2024-03-02T02:38:32;100091.59;;;8.34;100.00
65190;BME280;51777;53.570;9.984;2024-03-02T02:40:59;100093.25;;;8.35;100.00
65190;BME280;51777;53.570;9.984;2024-03-02T02:43:24;100088.91;;;8.35;100.00
65190;BME280;51777;53.570;9.984;2024-03-02T02:45:49;100080.72;;;8.40;100.00
65190;BME280;51777;53.570;9.984;2024-03-02T02:48:15;100083.94;;;8.42;100.00
65190;BME280;51777;53.570;9.984;2024-03-02T02:50:41;100082.63;;;8.38;100.00
65190;BME280;51777;53.570;9.984;2024-03-02T02:53:07;100084.25;;;8.39;100.00
65190;BME280;51777;53.570;9.984;2024-03-02T02:55:34;100079.75;;;8.41;100.00
65190;BME280;51777;53.570;9.984;2024-03-02T02:58:00;100080.41;;;8.43;100.00
65190;BME280;51777;53.570;9.984;2024-03-02T03:00:25;100078.78;;;8.42;100.00
65190;BME280;51777;53.570;9.984;2024-03-02T03:02:51;100077.72;;;8.44;100.00
65190;BME280;51777;53.570;9.984;2024-03-02T03:05:17;100087.22;;;8.44;100.00
65190;BME280;51777;53.570;9.984;2024-03-02T03:07:43;100088.28;;;8.41;100.00
65190;BME280;51777;53.570;9.984;2024-03-02T03:10:09;100084.91;;;8.41;100.00
65190;BME280;51777;53.570;9.984;2024-03-02T03:12:35;100087.94;;;8.36;100.00
65190;BME280;51777;53.570;9.984;2024-03-02T03:15:02;100083.75;;;8.35;100.00
65190;BME280;51777;53.570;9.984;2024-03-02T03:17:28;100075.31;;;8.33;100.00
65190;BME280;51777;53.570;9.984;2024-03-02T03:19:53;100083.88;;;8.34;100.00
65190;BME280;51777;53.570;9.984;2024-03-02T03:22:20;100077.25;;;8.31;100.00
65190;BME280;51777;53.570;9.984;2024-03-02T03:24:46;100073.97;;;8.29;100.00
65190;BME280;51777;53.570;9.984;2024-03-02T03:27:12;100074.66;;;8.31;100.00
65190;BME280;51777;53.570;9.984;2024-03-02T03:29:37;100085.78;;;8.32;100.00
65190;BME280;51777;53.570;9.984;2024-03-02T03:32:03;100080.75;;;8.30;100.00
65190;BME280;51777;53.570;9.984;2024-03-02T03:34:32;100076.72;;;8.28;100.00
65190;BME280;51777;53.570;9.984;2024-03-02T03:36:58;100080.09;;;8.28;100.00
65190;BME280;51777;53.570;9.984;2024-03-02T03:39:23;100083.63;;;8.27;100.00
65190;BME280;51777;53.570;9.984;2024-03-02T03:41:48;100080.41;;;8.25;100.00
65190;BME280;51777;53.570;9.984;2024-03-02T03:44:14;100078.78;;;8.24;100.00
65190;BME280;51777;53.570;9.984;2024-03-02T03:46:39;100080.25;;;8.27;100.00
65190;BME280;51777;53.570;9.984;2024-03-02T03:49:05;100079.59;;;8.24;100.00
65190;BME280;51777;53.570;9.984;2024-03-02T03:51:32;100073.63;;;8.24;100.00
65190;BME280;51777;53.570;9.984;2024-03-02T03:53:57;100077.97;;;8.23;100.00
65190;BME280;51777;53.570;9.984;2024-03-02T03:56:23;100075.41;;;8.23;100.00
65190;BME280;51777;53.570;9.984;2024-03-02T03:58:48;100078.41;;;8.19;100.00
65190;BME280;51777;53.570;9.984;2024-03-02T04:01:14;100071.91;;;8.15;100.00
65190;BME280;51777;53.570;9.984;2024-03-02T04:03:39;100074.34;;;8.16;100.00
65190;BME280;51777;53.570;9.984;2024-03-02T04:06:05;100071.78;;;8.16;100.00
65190;BME280;51777;53.570;9.984;2024-03-02T04:08:30;100074.66;;;8.13;100.00
65190;BME280;51777;53.570;9.984;2024-03-02T04:10:56;100065.31;;;8.12;100.00
65190;BME280;51777;53.570;9.984;2024-03-02T04:13:21;100071.41;;;8.11;100.00
65190;BME280;51777;53.570;9.984;2024-03-02T04:15:46;100066.56;;;8.08;100.00
65190;BME280;51777;53.570;9.984;2024-03-02T04:18:12;100067.06;;;8.12;100.00
65190;BME280;51777;53.570;9.984;2024-03-02T04:20:37;100061.63;;;8.15;100.00
65190;BME280;51777;53.570;9.984;2024-03-02T04:23:03;100068.03;;;8.11;100.00
65190;BME280;51777;53.570;9.984;2024-03-02T04:25:28;100067.38;;;8.09;100.00
65190;BME280;51777;53.570;9.984;2024-03-02T04:27:54;100070.22;;;8.06;100.00
65190;BME280;51777;53.570;9.984;2024-03-02T04:30:19;100065.91;;;8.06;100.00
65190;BME280;51777;53.570;9.984;2024-03-02T04:32:45;100069.41;;;8.05;100.00
65190;BME280;51777;53.570;9.984;2024-03-02T04:35:12;100068.47;;;8.06;100.00
65190;BME280;51777;53.570;9.984;2024-03-02T04:37:40;100071.16;;;8.05;100.00
65190;BME280;51777;53.570;9.984;2024-03-02T04:40:06;100076.63;;;8.02;100.00
65190;BME280;51777;53.570;9.984;2024-03-02T04:42:33;100086.09;;;8.01;100.00
65190;BME280;51777;53.570;9.984;2024-03-02T04:44:59;100088.03;;;7.99;100.00
65190;BME280;51777;53.570;9.984;2024-03-02T04:47:24;100097.38;;;8.00;100.00
65190;BME280;51777;53.570;9.984;2024-03-02T04:49:50;100086.91;;;8.02;100.00
65190;BME280;51777;53.570;9.984;2024-03-02T04:52:15;100087.22;;;7.99;100.00
65190;BME280;51777;53.570;9.984;2024-03-02T04:54:41;100094.78;;;8.00;100.00
65190;BME280;51777;53.570;9.984;2024-03-02T04:57:25;100085.97;;;8.03;100.00
65190;BME280;51777;53.570;9.984;2024-03-02T04:59:50;100076.63;;;8.02;100.00
65190;BME280;51777;53.570;9.984;2024-03-02T05:02:16;100077.56;;;8.01;100.00
65190;BME280;51777;53.570;9.984;2024-03-02T05:04:41;100083.69;;;8.00;100.00
65190;BME280;51777;53.570;9.984;2024-03-02T05:07:07;100082.22;;;7.97;100.00
65190;BME280;51777;53.570;9.984;2024-03-02T05:09:32;100075.16;;;7.99;100.00
65190;BME280;51777;53.570;9.984;2024-03-02T05:11:58;100070.97;;;7.98;100.00
65190;BME280;51777;53.570;9.984;2024-03-02T05:14:42;100073.38;;;8.00;100.00
65190;BME280;51777;53.570;9.984;2024-03-02T05:17:07;100066.47;;;8.00;100.00
65190;BME280;51777;53.570;9.984;2024-03-02T05:19:33;100068.22;;;8.00;100.00
65190;BME280;51777;53.570;9.984;2024-03-02T05:21:58;100066.63;;;7.99;100.00
65190;BME280;51777;53.570;9.984;2024-03-02T05:24:24;100071.91;;;7.97;100.00
65190;BME280;51777;53.570;9.984;2024-03-02T05:26:52;100073.69;;;7.97;100.00
65190;BME280;51777;53.570;9.984;2024-03-02T05:29:17;100073.38;;;8.00;100.00
65190;BME280;51777;53.570;9.984;2024-03-02T05:31:43;100077.88;;;7.98;100.00
65190;BME280;51777;53.570;9.984;2024-03-02T05:34:08;100072.72;;;7.98;100.00
65190;BME280;51777;53.570;9.984;2024-03-02T05:36:34;100078.53;;;8.00;100.00
65190;BME280;51777;53.570;9.984;2024-03-02T05:38:59;100081.56;;;7.95;100.00
65190;BME280;51777;53.570;9.984;2024-03-02T05:41:24;100075.59;;;7.94;100.00
65190;BME280;51777;53.570;9.984;2024-03-02T05:43:50;100079.09;;;7.93;100.00
65190;BME280;51777;53.570;9.984;2024-03-02T05:46:16;100078.81;;;7.97;100.00
65190;BME280;51777;53.570;9.984;2024-03-02T05:48:41;100072.88;;;7.96;100.00
65190;BME280;51777;53.570;9.984;2024-03-02T05:51:07;100076.41;;;7.95;100.00
65190;BME280;51777;53.570;9.984;2024-03-02T05:53:33;100074.78;;;7.94;100.00
65190;BME280;51777;53.570;9.984;2024-03-02T05:55:58;100073.03;;;7.94;100.00
65190;BME280;51777;53.570;9.984;2024-03-02T05:58:24;100069.63;;;7.94;100.00
65190;BME280;51777;53.570;9.984;2024-03-02T06:00:49;100078.28;;;7.93;100.00
65190;BME280;51777;53.570;9.984;2024-03-02T06:03:15;100082.56;;;7.84;100.00
65190;BME280;51777;53.570;9.984;2024-03-02T06:05:40;100083.22;;;7.86;100.00
65190;BME280;51777;53.570;9.984;2024-03-02T06:08:06;100076.75;;;7.82;100.00
65190;BME280;51777;53.570;9.984;2024-03-02T06:10:32;100081.91;;;7.82;100.00
65190;BME280;51777;53.570;9.984;2024-03-02T06:12:58;100081.91;;;7.82;100.00
65190;BME280;51777;53.570;9.984;2024-03-02T06:15:24;100090.69;;;7.80;100.00
65190;BME280;51777;53.570;9.984;2024-03-02T06:17:50;100084.06;;;7.77;100.00
65190;BME280;51777;53.570;9.984;2024-03-02T06:20:15;100083.25;;;7.77;100.00
65190;BME280;51777;53.570;9.984;2024-03-02T06:22:48;100093.56;;;7.77;100.00
65190;BME280;51777;53.570;9.984;2024-03-02T06:25:13;100091.94;;;7.76;100.00
65190;BME280;51777;53.570;9.984;2024-03-02T06:27:41;100097.09;;;7.76;100.00
65190;BME280;51777;53.570;9.984;2024-03-02T06:30:06;100084.22;;;7.76;100.00
65190;BME280;51777;53.570;9.984;2024-03-02T06:32:33;100090.03;;;7.78;100.00
65190;BME280;51777;53.570;9.984;2024-03-02T06:34:58;100087.31;;;7.79;100.00
65190;BME280;51777;53.570;9.984;2024-03-02T06:37:24;100079.59;;;7.79;100.00
65190;BME280;51777;53.570;9.984;2024-03-02T06:39:50;100080.41;;;7.80;100.00
65190;BME280;51777;53.570;9.984;2024-03-02T06:42:15;100087.16;;;7.81;100.00
65190;BME280;51777;53.570;9.984;2024-03-02T06:44:41;100087.69;;;7.84;100.00
65190;BME280;51777;53.570;9.984;2024-03-02T06:47:06;100089.16;;;7.87;100.00
65190;BME280;51777;53.570;9.984;2024-03-02T06:49:31;100087.91;;;7.91;100.00
65190;BME280;51777;53.570;9.984;2024-03-02T06:51:57;100092.41;;;7.89;100.00
65190;BME280;51777;53.570;9.984;2024-03-02T06:54:22;100092.41;;;7.89;100.00
65190;BME280;51777;53.570;9.984;2024-03-02T06:56:47;100097.00;;;7.95;100.00
65190;BME280;51777;53.570;9.984;2024-03-02T06:59:13;100094.13;;;7.98;100.00
65190;BME280;51777;53.570;9.984;2024-03-02T07:01:38;100086.75;;;8.03;100.00
65190;BME280;51777;53.570;9.984;2024-03-02T07:04:04;100089.44;;;8.11;100.00
65190;BME280;51777;53.570;9.984;2024-03-02T07:06:31;100089.78;;;8.16;100.00
65190;BME280;51777;53.570;9.984;2024-03-02T07:08:57;100107.25;;;8.22;100.00
65190;BME280;51777;53.570;9.984;2024-03-02T07:11:22;100108.38;;;8.20;100.00
65190;BME280;51777;53.570;9.984;2024-03-02T07:13:48;100116.97;;;8.29;100.00
65190;BME280;51777;53.570;9.984;2024-03-02T07:16:13;100115.47;;;8.36;100.00
65190;BME280;51777;53.570;9.984;2024-03-02T07:18:58;100121.69;;;8.33;100.00
65190;BME280;51777;53.570;9.984;2024-03-02T07:21:24;100130.63;;;8.39;100.00
65190;BME280;51777;53.570;9.984;2024-03-02T07:23:50;100131.81;;;8.44;100.00
65190;BME280;51777;53.570;9.984;2024-03-02T07:26:18;100128.47;;;8.52;100.00
65190;BME280;51777;53.570;9.984;2024-03-02T07:28:45;100138.22;;;8.58;100.00
65190;BME280;51777;53.570;9.984;2024-03-02T07:31:12;100137.09;;;8.61;100.00
65190;BME280;51777;53.570;9.984;2024-03-02T07:33:37;100133.13;;;8.66;100.00
65190;BME280;51777;53.570;9.984;2024-03-02T07:36:03;100136.38;;;8.68;100.00
65190;BME280;51777;53.570;9.984;2024-03-02T07:38:29;100141.59;;;8.76;100.00
65190;BME280;51777;53.570;9.984;2024-03-02T07:40:54;100151.16;;;8.84;100.00
65190;BME280;51777;53.570;9.984;2024-03-02T07:43:21;100149.44;;;8.93;100.00
65190;BME280;51777;53.570;9.984;2024-03-02T07:45:47;100148.22;;;8.97;100.00
65190;BME280;51777;53.570;9.984;2024-03-02T07:48:14;100151.75;;;8.96;100.00
65190;BME280;51777;53.570;9.984;2024-03-02T07:50:39;100143.44;;;8.84;100.00
65190;BME280;51777;53.570;9.984;2024-03-02T07:53:05;100153.59;;;8.86;100.00
65190;BME280;51777;53.570;9.984;2024-03-02T07:55:36;100162.50;;;8.91;100.00
65190;BME280;51777;53.570;9.984;2024-03-02T07:58:01;100173.16;;;9.14;100.00
65190;BME280;51777;53.570;9.984;2024-03-02T08:00:27;100162.53;;;9.17;100.00
65190;BME280;51777;53.570;9.984;2024-03-02T08:02:53;100171.03;;;9.35;100.00
65190;BME280;51777;53.570;9.984;2024-03-02T08:05:19;100174.78;;;9.41;100.00
65190;BME280;51777;53.570;9.984;2024-03-02T08:07:45;100173.63;;;9.35;100.00
65190;BME280;51777;53.570;9.984;2024-03-02T08:10:12;100171.78;;;9.28;100.00
65190;BME280;51777;53.570;9.984;2024-03-02T08:12:37;100181.75;;;9.23;100.00
65190;BME280;51777;53.570;9.984;2024-03-02T08:15:03;100183.53;;;9.22;100.00
65190;BME280;51777;53.570;9.984;2024-03-02T08:17:29;100178.69;;;9.19;100.00
65190;BME280;51777;53.570;9.984;2024-03-02T08:19:55;100185.81;;;9.25;100.00
65190;BME280;51777;53.570;9.984;2024-03-02T08:22:22;100184.19;;;9.24;100.00
65190;BME280;51777;53.570;9.984;2024-03-02T08:24:47;100186.69;;;9.16;100.00
65190;BME280;51777;53.570;9.984;2024-03-02T08:27:13;100179.41;;;9.11;100.00
65190;BME280;51777;53.570;9.984;2024-03-02T08:29:38;100181.56;;;8.98;100.00
65190;BME280;51777;53.570;9.984;2024-03-02T08:32:05;100184.66;;;9.02;100.00
65190;BME280;51777;53.570;9.984;2024-03-02T08:34:30;100190.47;;;9.04;100.00
65190;BME280;51777;53.570;9.984;2024-03-02T08:36:56;100194.25;;;9.09;100.00
65190;BME280;51777;53.570;9.984;2024-03-02T08:39:22;100192.38;;;9.20;100.00
65190;BME280;51777;53.570;9.984;2024-03-02T08:41:47;100200.69;;;9.31;100.00
65190;BME280;51777;53.570;9.984;2024-03-02T08:44:14;100194.59;;;9.40;100.00
65190;BME280;51777;53.570;9.984;2024-03-02T08:46:40;100193.19;;;9.72;100.00
65190;BME280;51777;53.570;9.984;2024-03-02T08:49:05;100190.78;;;10.05;100.00
65190;BME280;51777;53.570;9.984;2024-03-02T08:51:31;100196.88;;;10.38;100.00
65190;BME280;51777;53.570;9.984;2024-03-02T08:53:57;100199.19;;;10.57;100.00
65190;BME280;51777;53.570;9.984;2024-03-02T08:56:23;100197.31;;;11.32;100.00
65190;BME280;51777;53.570;9.984;2024-03-02T08:58:49;100212.25;;;12.33;100.00
65190;BME280;51777;53.570;9.984;2024-03-02T09:01:17;100211.28;;;12.65;100.00
65190;BME280;51777;53.570;9.984;2024-03-02T09:03:42;100219.28;;;13.91;100.00
65190;BME280;51777;53.570;9.984;2024-03-02T09:06:11;100229.88;;;14.40;98.47
65190;BME280;51777;53.570;9.984;2024-03-02T09:08:36;100231.38;;;14.86;94.20
65190;BME280;51777;53.570;9.984;2024-03-02T09:11:04;100232.50;;;15.19;93.46
65190;BME280;51777;53.570;9.984;2024-03-02T09:13:30;100240.97;;;16.19;91.49
65190;BME280;51777;53.570;9.984;2024-03-02T09:15:56;100235.09;;;16.10;93.61
65190;BME280;51777;53.570;9.984;2024-03-02T09:18:21;100239.56;;;15.53;97.74
65190;BME280;51777;53.570;9.984;2024-03-02T09:20:47;100246.31;;;14.98;100.00
65190;BME280;51777;53.570;9.984;2024-03-02T09:23:12;100231.16;;;14.00;100.00
65190;BME280;51777;53.570;9.984;2024-03-02T09:25:38;100232.59;;;13.59;100.00
65190;BME280;51777;53.570;9.984;2024-03-02T09:28:03;100229.84;;;13.90;100.00
65190;BME280;51777;53.570;9.984;2024-03-02T09:30:35;100232.16;;;13.99;99.63
65190;BME280;51777;53.570;9.984;2024-03-02T09:33:00;100241.94;;;14.27;98.24
65190;BME280;51777;53.570;9.984;2024-03-02T09:35:26;100243.69;;;14.41;97.53
65190;BME280;51777;53.570;9.984;2024-03-02T09:37:51;100243.97;;;14.31;96.49
65190;BME280;51777;53.570;9.984;2024-03-02T09:40:17;100235.91;;;14.11;98.44
65190;BME280;51777;53.570;9.984;2024-03-02T09:42:42;100234.13;;;14.12;98.28
65190;BME280;51777;53.570;9.984;2024-03-02T09:45:09;100243.19;;;15.87;91.52
65190;BME280;51777;53.570;9.984;2024-03-02T09:47:34;100250.03;;;16.29;89.95
65190;BME280;51777;53.570;9.984;2024-03-02T09:50:01;100257.44;;;16.73;93.59
65190;BME280;51777;53.570;9.984;2024-03-02T09:52:27;100251.06;;;18.40;93.09
65190;BME280;51777;53.570;9.984;2024-03-02T09:54:53;100265.06;;;18.65;93.42
65190;BME280;51777;53.570;9.984;2024-03-02T09:57:18;100262.22;;;18.60;100.00
65190;BME280;51777;53.570;9.984;2024-03-02T09:59:44;100265.16;;;18.39;100.00
65190;BME280;51777;53.570;9.984;2024-03-02T10:02:10;100256.06;;;18.48;100.00
65190;BME280;51777;53.570;9.984;2024-03-02T10:04:36;100268.63;;;19.34;100.00
65190;BME280;51777;53.570;9.984;2024-03-02T10:07:21;100274.59;;;19.73;100.00
65190;BME280;51777;53.570;9.984;2024-03-02T10:09:48;100278.16;;;20.15;100.00
65190;BME280;51777;53.570;9.984;2024-03-02T10:12:16;100282.31;;;20.04;100.00
65190;BME280;51777;53.570;9.984;2024-03-02T10:14:42;100271.84;;;19.36;100.00
65190;BME280;51777;53.570;9.984;2024-03-02T10:17:12;100277.25;;;19.16;100.00
65190;BME280;51777;53.570;9.984;2024-03-02T10:19:39;100269.75;;;19.45;100.00
65190;BME280;51777;53.570;9.984;2024-03-02T10:22:06;100274.31;;;19.56;100.00
65190;BME280;51777;53.570;9.984;2024-03-02T10:24:42;100273.56;;;19.92;100.00
65190;BME280;51777;53.570;9.984;2024-03-02T10:27:10;100265.59;;;18.81;100.00
65190;BME280;51777;53.570;9.984;2024-03-02T10:29:39;100258.97;;;18.27;100.00
65190;BME280;51777;53.570;9.984;2024-03-02T10:32:09;100253.06;;;17.07;100.00
65190;BME280;51777;53.570;9.984;2024-03-02T10:34:35;100259.13;;;16.40;100.00
65190;BME280;51777;53.570;9.984;2024-03-02T10:37:01;100255.72;;;16.39;100.00
65190;BME280;51777;53.570;9.984;2024-03-02T10:39:28;100255.38;;;16.62;100.00
65190;BME280;51777;53.570;9.984;2024-03-02T10:41:55;100263.53;;;17.00;100.00
65190;BME280;51777;53.570;9.984;2024-03-02T10:44:22;100260.69;;;16.82;100.00
65190;BME280;51777;53.570;9.984;2024-03-02T10:46:49;100259.63;;;16.22;100.00
65190;BME280;51777;53.570;9.984;2024-03-02T10:49:15;100254.16;;;16.04;100.00
65190;BME280;51777;53.570;9.984;2024-03-02T10:51:41;100263.13;;;15.95;100.00
65190;BME280;51777;53.570;9.984;2024-03-02T10:54:06;100249.41;;;15.58;100.00
65190;BME280;51777;53.570;9.984;2024-03-02T10:56:39;100255.94;;;15.47;100.00
65190;BME280;51777;53.570;9.984;2024-03-02T11:01:33;100255.75;;;15.49;100.00
65190;BME280;51777;53.570;9.984;2024-03-02T11:04:01;100265.34;;;15.63;100.00
65190;BME280;51777;53.570;9.984;2024-03-02T11:06:28;100264.56;;;15.69;100.00
65190;BME280;51777;53.570;9.984;2024-03-02T11:08:55;100259.34;;;15.69;100.00
65190;BME280;51777;53.570;9.984;2024-03-02T11:11:29;100263.75;;;15.69;100.00
65190;BME280;51777;53.570;9.984;2024-03-02T11:13:57;100267.78;;;15.71;100.00
65190;BME280;51777;53.570;9.984;2024-03-02T11:16:35;100263.69;;;15.62;100.00
65190;BME280;51777;53.570;9.984;2024-03-02T11:19:12;100264.25;;;15.57;100.00
65190;BME280;51777;53.570;9.984;2024-03-02T11:21:38;100273.50;;;15.60;100.00
65190;BME280;51777;53.570;9.984;2024-03-02T11:26:51;100260.63;;;15.31;100.00
65190;BME280;51777;53.570;9.984;2024-03-02T11:32:03;100267.00;;;14.85;100.00
65190;BME280;51777;53.570;9.984;2024-03-02T11:34:33;100275.63;;;14.64;100.00
65190;BME280;51777;53.570;9.984;2024-03-02T11:37:01;100272.88;;;14.73;100.00
65190;BME280;51777;53.570;9.984;2024-03-02T11:39:27;100277.50;;;14.92;100.00
65190;BME280;51777;53.570;9.984;2024-03-02T11:41:53;100276.94;;;14.96;100.00
65190;BME280;51777;53.570;9.984;2024-03-02T11:44:19;100278.38;;;14.99;100.00
65190;BME280;51777;53.570;9.984;2024-03-02T11:47:01;100280.16;;;14.98;100.00
65190;BME280;51777;53.570;9.984;2024-03-02T11:52:14;100275.00;;;14.48;100.00
65190;BME280;51777;53.570;9.984;2024-03-02T11:54:44;100269.09;;;14.39;100.00
65190;BME280;51777;53.570;9.984;2024-03-02T11:57:18;100268.63;;;14.35;100.00
65190;BME280;51777;53.570;9.984;2024-03-02T11:59:44;100266.75;;;14.29;100.00
65190;BME280;51777;53.570;9.984;2024-03-02T12:02:19;100272.84;;;14.22;100.00
65190;BME280;51777;53.570;9.984;2024-03-02T12:04:45;100269.88;;;14.25;100.00
65190;BME280;51777;53.570;9.984;2024-03-02T12:07:21;100271.25;;;14.21;100.00
65190;BME280;51777;53.570;9.984;2024-03-02T12:09:48;100271.31;;;14.13;100.00
65190;BME280;51777;53.570;9.984;2024-03-02T12:12:15;100262.38;;;14.00;100.00
65190;BME280;51777;53.570;9.984;2024-03-02T12:14:53;100259.06;;;14.06;100.00
65190;BME280;51777;53.570;9.984;2024-03-02T12:17:21;100259.25;;;13.90;100.00
65190;BME280;51777;53.570;9.984;2024-03-02T12:19:47;100264.44;;;13.90;100.00
65190;BME280;51777;53.570;9.984;2024-03-02T12:22:12;100249.72;;;13.82;100.00
65190;BME280;51777;53.570;9.984;2024-03-02T12:24:38;100255.19;;;13.88;100.00
65190;BME280;51777;53.570;9.984;2024-03-02T12:27:05;100250.19;;;13.86;100.00
65190;BME280;51777;53.570;9.984;2024-03-02T12:29:32;100244.97;;;13.86;100.00
65190;BME280;51777;53.570;9.984;2024-03-02T12:32:00;100244.72;;;13.96;100.00
65190;BME280;51777;53.570;9.984;2024-03-02T12:34:29;100250.53;;;14.13;100.00
65190;BME280;51777;53.570;9.984;2024-03-02T12:36:54;100245.69;;;14.09;100.00
65190;BME280;51777;53.570;9.984;2024-03-02T12:39:20;100247.84;;;14.21;100.00
65190;BME280;51777;53.570;9.984;2024-03-02T12:41:47;100247.38;;;14.32;100.00
65190;BME280;51777;53.570;9.984;2024-03-02T12:44:15;100248.38;;;14.31;100.00
65190;BME280;51777;53.570;9.984;2024-03-02T12:46:41;100247.19;;;14.33;100.00
65190;BME280;51777;53.570;9.984;2024-03-02T12:49:11;100248.44;;;14.37;100.00
65190;BME280;51777;53.570;9.984;2024-03-02T12:51:40;100246.59;;;14.17;100.00
65190;BME280;51777;53.570;9.984;2024-03-02T12:54:14;100240.59;;;14.16;100.00
65190;BME280;51777;53.570;9.984;2024-03-02T12:56:41;100240.75;;;14.29;100.00
65190;BME280;51777;53.570;9.984;2024-03-02T12:59:17;100242.19;;;14.32;100.00
65190;BME280;51777;53.570;9.984;2024-03-02T13:01:56;100246.66;;;14.23;100.00